sensor_id;sensor_type;location;lat;lon;timestamp;temperature;humidity
79356;SHT31;68825;51.978;5.654;2023-08-06T00:01:52;18.3;73.4
79356;SHT31;68825;51.978;5.654;2023-08-06T00:04:21;18.3;74.2
79356;SHT31;68825;51.978;5.654;2023-08-06T00:06:49;18.3;73.8
79356;SHT31;68825;51.978;5.654;2023-08-06T00:09:18;18.3;74.0
79356;SHT31;68825;51.978;5.654;2023-08-06T00:11:46;18.3;74.3
79356;SHT31;68825;51.978;5.654;2023-08-06T00:14:15;18.3;73.5
79356;SHT31;68825;51.978;5.654;2023-08-06T00:16:45;18.3;74.2
79356;SHT31;68825;51.978;5.654;2023-08-06T00:19:13;18.3;73.4
79356;SHT31;68825;51.978;5.654;2023-08-06T00:21:42;18.3;74.4
79356;SHT31;68825;51.978;5.654;2023-08-06T00:24:12;18.3;73.9
79356;SHT31;68825;51.978;5.654;2023-08-06T00:26:41;18.3;73.5
79356;SHT31;68825;51.978;5.654;2023-08-06T00:29:10;18.3;73.4
79356;SHT31;68825;51.978;5.654;2023-08-06T00:31:38;18.3;73.2
79356;SHT31;68825;51.978;5.654;2023-08-06T00:34:07;18.3;73.7
79356;SHT31;68825;51.978;5.654;2023-08-06T00:36:37;18.3;73.9
79356;SHT31;68825;51.978;5.654;2023-08-06T00:39:07;18.3;74.3
79356;SHT31;68825;51.978;5.654;2023-08-06T00:41:35;18.3;74.0
79356;SHT31;68825;51.978;5.654;2023-08-06T00:44:04;18.2;74.3
79356;SHT31;68825;51.978;5.654;2023-08-06T00:46:33;18.2;74.7
79356;SHT31;68825;51.978;5.654;2023-08-06T00:49:03;18.2;74.4
79356;SHT31;68825;51.978;5.654;2023-08-06T00:51:32;18.2;74.3
79356;SHT31;68825;51.978;5.654;2023-08-06T00:54:03;18.2;74.8
79356;SHT31;68825;51.978;5.654;2023-08-06T00:56:33;18.2;74.9
79356;SHT31;68825;51.978;5.654;2023-08-06T00:59:02;18.2;74.6
79356;SHT31;68825;51.978;5.654;2023-08-06T01:01:31;18.2;74.7
79356;SHT31;68825;51.978;5.654;2023-08-06T01:04:00;18.1;75.1
79356;SHT31;68825;51.978;5.654;2023-08-06T01:06:42;18.1;75.8
79356;SHT31;68825;51.978;5.654;2023-08-06T01:09:25;18.0;76.0
79356;SHT31;68825;51.978;5.654;2023-08-06T01:12:04;18.0;75.9
79356;SHT31;68825;51.978;5.654;2023-08-06T01:14:41;18.0;76.5
79356;SHT31;68825;51.978;5.654;2023-08-06T01:17:12;18.0;76.3
79356;SHT31;68825;51.978;5.654;2023-08-06T01:19:42;18.0;76.2
79356;SHT31;68825;51.978;5.654;2023-08-06T01:22:10;18.0;75.8
79356;SHT31;68825;51.978;5.654;2023-08-06T01:24:40;17.9;76.2
79356;SHT31;68825;51.978;5.654;2023-08-06T01:27:19;17.9;76.5
79356;SHT31;68825;51.978;5.654;2023-08-06T01:29:59;17.8;77.3
79356;SHT31;68825;51.978;5.654;2023-08-06T01:32:34;17.8;77.0
79356;SHT31;68825;51.978;5.654;2023-08-06T01:35:04;17.8;77.3
79356;SHT31;68825;51.978;5.654;2023-08-06T01:37:34;17.8;77.6
79356;SHT31;68825;51.978;5.654;2023-08-06T01:40:05;17.8;77.4
79356;SHT31;68825;51.978;5.654;2023-08-06T01:42:34;17.8;77.4
79356;SHT31;68825;51.978;5.654;2023-08-06T01:45:03;17.8;77.5
79356;SHT31;68825;51.978;5.654;2023-08-06T01:47:31;17.7;77.5
79356;SHT31;68825;51.978;5.654;2023-08-06T01:50:00;17.7;77.6
79356;SHT31;68825;51.978;5.654;2023-08-06T01:52:29;17.7;78.0
79356;SHT31;68825;51.978;5.654;2023-08-06T01:54:58;17.7;78.4
79356;SHT31;68825;51.978;5.654;2023-08-06T01:57:26;17.7;78.1
79356;SHT31;68825;51.978;5.654;2023-08-06T01:59:55;17.7;78.0
79356;SHT31;68825;51.978;5.654;2023-08-06T02:02:23;17.7;77.9
79356;SHT31;68825;51.978;5.654;2023-08-06T02:04:52;17.7;77.9
79356;SHT31;68825;51.978;5.654;2023-08-06T02:07:21;17.7;78.0
79356;SHT31;68825;51.978;5.654;2023-08-06T02:09:49;17.7;78.0
79356;SHT31;68825;51.978;5.654;2023-08-06T02:12:18;17.7;78.0
79356;SHT31;68825;51.978;5.654;2023-08-06T02:14:46;17.7;77.8
79356;SHT31;68825;51.978;5.654;2023-08-06T02:17:15;17.6;78.1
79356;SHT31;68825;51.978;5.654;2023-08-06T02:19:44;17.6;77.8
79356;SHT31;68825;51.978;5.654;2023-08-06T02:22:14;17.6;78.3
79356;SHT31;68825;51.978;5.654;2023-08-06T02:24:43;17.6;78.1
79356;SHT31;68825;51.978;5.654;2023-08-06T02:27:11;17.7;78.0
79356;SHT31;68825;51.978;5.654;2023-08-06T02:29:41;17.7;77.7
79356;SHT31;68825;51.978;5.654;2023-08-06T02:32:11;17.7;77.9
79356;SHT31;68825;51.978;5.654;2023-08-06T02:34:39;17.7;78.0
79356;SHT31;68825;51.978;5.654;2023-08-06T02:37:08;17.7;77.9
79356;SHT31;68825;51.978;5.654;2023-08-06T02:39:37;17.7;77.6
79356;SHT31;68825;51.978;5.654;2023-08-06T02:42:06;17.7;77.7
79356;SHT31;68825;51.978;5.654;2023-08-06T02:44:37;17.7;77.6
79356;SHT31;68825;51.978;5.654;2023-08-06T02:47:08;17.7;77.8
79356;SHT31;68825;51.978;5.654;2023-08-06T02:49:36;17.8;78.2
79356;SHT31;68825;51.978;5.654;2023-08-06T02:52:06;17.8;77.8
79356;SHT31;68825;51.978;5.654;2023-08-06T02:54:34;17.8;77.4
79356;SHT31;68825;51.978;5.654;2023-08-06T02:57:03;17.8;77.1
79356;SHT31;68825;51.978;5.654;2023-08-06T02:59:32;17.8;77.3
79356;SHT31;68825;51.978;5.654;2023-08-06T03:02:01;17.8;77.4
79356;SHT31;68825;51.978;5.654;2023-08-06T03:04:30;17.8;77.2
79356;SHT31;68825;51.978;5.654;2023-08-06T03:06:58;17.8;77.6
79356;SHT31;68825;51.978;5.654;2023-08-06T03:09:27;17.8;77.0
79356;SHT31;68825;51.978;5.654;2023-08-06T03:11:55;17.8;77.0
79356;SHT31;68825;51.978;5.654;2023-08-06T03:14:24;17.8;77.1
79356;SHT31;68825;51.978;5.654;2023-08-06T03:16:52;17.8;77.3
79356;SHT31;68825;51.978;5.654;2023-08-06T03:19:21;17.8;77.6
79356;SHT31;68825;51.978;5.654;2023-08-06T03:21:49;17.8;77.4
79356;SHT31;68825;51.978;5.654;2023-08-06T03:24:18;17.8;77.6
79356;SHT31;68825;51.978;5.654;2023-08-06T03:26:47;17.8;77.1
79356;SHT31;68825;51.978;5.654;2023-08-06T03:29:15;17.8;77.2
79356;SHT31;68825;51.978;5.654;2023-08-06T03:31:44;17.8;77.0
79356;SHT31;68825;51.978;5.654;2023-08-06T03:34:12;17.8;76.5
79356;SHT31;68825;51.978;5.654;2023-08-06T03:36:41;17.8;76.8
79356;SHT31;68825;51.978;5.654;2023-08-06T03:39:09;17.8;76.8
79356;SHT31;68825;51.978;5.654;2023-08-06T03:41:40;17.8;77.3
79356;SHT31;68825;51.978;5.654;2023-08-06T03:44:09;17.8;77.5
79356;SHT31;68825;51.978;5.654;2023-08-06T03:46:37;17.8;77.4
79356;SHT31;68825;51.978;5.654;2023-08-06T03:49:06;17.8;77.1
79356;SHT31;68825;51.978;5.654;2023-08-06T03:51:34;17.8;77.1
79356;SHT31;68825;51.978;5.654;2023-08-06T03:54:03;17.8;77.2
79356;SHT31;68825;51.978;5.654;2023-08-06T03:56:31;17.8;77.4
79356;SHT31;68825;51.978;5.654;2023-08-06T03:59:00;17.8;77.2
79356;SHT31;68825;51.978;5.654;2023-08-06T04:01:28;17.8;77.2
79356;SHT31;68825;51.978;5.654;2023-08-06T04:03:57;17.8;77.2
79356;SHT31;68825;51.978;5.654;2023-08-06T04:06:26;17.8;77.0
79356;SHT31;68825;51.978;5.654;2023-08-06T04:08:54;17.9;77.2
79356;SHT31;68825;51.978;5.654;2023-08-06T04:11:23;17.9;77.3
79356;SHT31;68825;51.978;5.654;2023-08-06T04:13:51;17.9;77.0
79356;SHT31;68825;51.978;5.654;2023-08-06T04:16:21;17.9;76.9
79356;SHT31;68825;51.978;5.654;2023-08-06T04:18:49;17.9;76.6
79356;SHT31;68825;51.978;5.654;2023-08-06T04:21:20;17.9;76.7
79356;SHT31;68825;51.978;5.654;2023-08-06T04:23:48;17.9;76.5
79356;SHT31;68825;51.978;5.654;2023-08-06T04:26:19;18.0;76.8
79356;SHT31;68825;51.978;5.654;2023-08-06T04:28:47;18.0;76.8
79356;SHT31;68825;51.978;5.654;2023-08-06T04:31:16;18.0;76.4
79356;SHT31;68825;51.978;5.654;2023-08-06T04:33:45;18.0;76.7
79356;SHT31;68825;51.978;5.654;2023-08-06T04:36:13;18.0;76.8
79356;SHT31;68825;51.978;5.654;2023-08-06T04:38:42;18.0;76.5
79356;SHT31;68825;51.978;5.654;2023-08-06T04:41:13;18.0;76.9
79356;SHT31;68825;51.978;5.654;2023-08-06T04:43:42;18.0;77.2
79356;SHT31;68825;51.978;5.654;2023-08-06T04:46:11;18.0;77.1
79356;SHT31;68825;51.978;5.654;2023-08-06T04:48:39;18.1;77.0
79356;SHT31;68825;51.978;5.654;2023-08-06T04:51:08;18.1;77.4
79356;SHT31;68825;51.978;5.654;2023-08-06T04:53:36;18.1;76.5
79356;SHT31;68825;51.978;5.654;2023-08-06T04:56:06;18.1;77.0
79356;SHT31;68825;51.978;5.654;2023-08-06T04:58:35;18.1;77.3
79356;SHT31;68825;51.978;5.654;2023-08-06T05:01:03;18.1;77.1
79356;SHT31;68825;51.978;5.654;2023-08-06T05:03:32;18.2;77.1
79356;SHT31;68825;51.978;5.654;2023-08-06T05:06:01;18.2;77.5
79356;SHT31;68825;51.978;5.654;2023-08-06T05:08:29;18.2;77.7
79356;SHT31;68825;51.978;5.654;2023-08-06T05:10:58;18.2;77.0
79356;SHT31;68825;51.978;5.654;2023-08-06T05:13:26;18.3;77.2
79356;SHT31;68825;51.978;5.654;2023-08-06T05:15:55;18.3;77.0
79356;SHT31;68825;51.978;5.654;2023-08-06T05:18:24;18.3;76.7
79356;SHT31;68825;51.978;5.654;2023-08-06T05:20:52;18.3;76.7
79356;SHT31;68825;51.978;5.654;2023-08-06T05:23:21;18.3;76.8
79356;SHT31;68825;51.978;5.654;2023-08-06T05:25:49;18.4;77.3
79356;SHT31;68825;51.978;5.654;2023-08-06T05:28:20;18.4;77.2
79356;SHT31;68825;51.978;5.654;2023-08-06T05:30:49;18.4;76.7
79356;SHT31;68825;51.978;5.654;2023-08-06T05:33:17;18.4;76.7
79356;SHT31;68825;51.978;5.654;2023-08-06T05:35:46;18.4;76.5
79356;SHT31;68825;51.978;5.654;2023-08-06T05:38:14;18.4;76.5
79356;SHT31;68825;51.978;5.654;2023-08-06T05:40:43;18.4;76.6
79356;SHT31;68825;51.978;5.654;2023-08-06T05:43:12;18.4;76.2
79356;SHT31;68825;51.978;5.654;2023-08-06T05:45:44;18.5;76.5
79356;SHT31;68825;51.978;5.654;2023-08-06T05:48:12;18.5;76.5
79356;SHT31;68825;51.978;5.654;2023-08-06T05:50:41;18.5;76.4
79356;SHT31;68825;51.978;5.654;2023-08-06T05:53:10;18.5;76.3
79356;SHT31;68825;51.978;5.654;2023-08-06T05:55:39;18.5;76.4
79356;SHT31;68825;51.978;5.654;2023-08-06T05:58:07;18.5;76.6
79356;SHT31;68825;51.978;5.654;2023-08-06T06:00:36;18.5;76.3
79356;SHT31;68825;51.978;5.654;2023-08-06T06:03:05;18.5;76.8
79356;SHT31;68825;51.978;5.654;2023-08-06T06:05:34;18.5;76.8
79356;SHT31;68825;51.978;5.654;2023-08-06T06:08:04;18.5;76.3
79356;SHT31;68825;51.978;5.654;2023-08-06T06:10:33;18.5;76.7
79356;SHT31;68825;51.978;5.654;2023-08-06T06:13:01;18.5;76.9
79356;SHT31;68825;51.978;5.654;2023-08-06T06:15:30;18.5;76.8
79356;SHT31;68825;51.978;5.654;2023-08-06T06:17:59;18.5;76.4
79356;SHT31;68825;51.978;5.654;2023-08-06T06:20:27;18.5;76.7
79356;SHT31;68825;51.978;5.654;2023-08-06T06:22:56;18.5;76.3
79356;SHT31;68825;51.978;5.654;2023-08-06T06:25:25;18.5;77.1
79356;SHT31;68825;51.978;5.654;2023-08-06T06:27:54;18.5;76.4
79356;SHT31;68825;51.978;5.654;2023-08-06T06:30:25;18.5;76.6
79356;SHT31;68825;51.978;5.654;2023-08-06T06:32:53;18.5;76.4
79356;SHT31;68825;51.978;5.654;2023-08-06T06:35:22;18.5;76.3
79356;SHT31;68825;51.978;5.654;2023-08-06T06:37:50;18.5;76.4
79356;SHT31;68825;51.978;5.654;2023-08-06T06:40:21;18.5;76.4
79356;SHT31;68825;51.978;5.654;2023-08-06T06:42:51;18.5;76.0
79356;SHT31;68825;51.978;5.654;2023-08-06T06:45:19;18.5;75.8
79356;SHT31;68825;51.978;5.654;2023-08-06T06:47:48;18.5;76.0
79356;SHT31;68825;51.978;5.654;2023-08-06T06:50:18;18.5;76.4
79356;SHT31;68825;51.978;5.654;2023-08-06T06:52:47;18.5;76.1
79356;SHT31;68825;51.978;5.654;2023-08-06T06:55:16;18.5;76.1
79356;SHT31;68825;51.978;5.654;2023-08-06T06:57:44;18.5;76.3
79356;SHT31;68825;51.978;5.654;2023-08-06T07:00:16;18.5;76.4
79356;SHT31;68825;51.978;5.654;2023-08-06T07:02:46;18.5;76.0
79356;SHT31;68825;51.978;5.654;2023-08-06T07:05:15;18.5;76.3
79356;SHT31;68825;51.978;5.654;2023-08-06T07:07:43;18.5;76.5
79356;SHT31;68825;51.978;5.654;2023-08-06T07:10:14;18.5;76.2
79356;SHT31;68825;51.978;5.654;2023-08-06T07:12:43;18.5;76.2
79356;SHT31;68825;51.978;5.654;2023-08-06T07:15:14;18.5;76.2
79356;SHT31;68825;51.978;5.654;2023-08-06T07:17:44;18.5;76.5
79356;SHT31;68825;51.978;5.654;2023-08-06T07:20:12;18.5;76.7
79356;SHT31;68825;51.978;5.654;2023-08-06T07:22:41;18.6;76.7
79356;SHT31;68825;51.978;5.654;2023-08-06T07:25:09;18.6;77.5
79356;SHT31;68825;51.978;5.654;2023-08-06T07:27:38;18.6;78.0
79356;SHT31;68825;51.978;5.654;2023-08-06T07:30:08;18.7;79.0
79356;SHT31;68825;51.978;5.654;2023-08-06T07:32:37;18.7;78.4
79356;SHT31;68825;51.978;5.654;2023-08-06T07:35:06;18.8;78.1
79356;SHT31;68825;51.978;5.654;2023-08-06T07:37:39;18.8;77.6
79356;SHT31;68825;51.978;5.654;2023-08-06T07:40:08;18.9;77.5
79356;SHT31;68825;51.978;5.654;2023-08-06T07:42:36;18.9;76.5
79356;SHT31;68825;51.978;5.654;2023-08-06T07:45:07;19.0;75.6
79356;SHT31;68825;51.978;5.654;2023-08-06T07:47:37;19.0;75.8
79356;SHT31;68825;51.978;5.654;2023-08-06T07:50:06;19.0;75.4
79356;SHT31;68825;51.978;5.654;2023-08-06T07:52:37;19.0;75.9
79356;SHT31;68825;51.978;5.654;2023-08-06T07:55:06;19.0;75.7
79356;SHT31;68825;51.978;5.654;2023-08-06T07:57:35;19.0;76.0
79356;SHT31;68825;51.978;5.654;2023-08-06T08:00:05;18.9;76.1
79356;SHT31;68825;51.978;5.654;2023-08-06T08:02:34;18.9;76.5
79356;SHT31;68825;51.978;5.654;2023-08-06T08:05:02;18.9;75.9
79356;SHT31;68825;51.978;5.654;2023-08-06T08:07:33;18.9;75.7
79356;SHT31;68825;51.978;5.654;2023-08-06T08:10:02;18.9;76.0
79356;SHT31;68825;51.978;5.654;2023-08-06T08:12:31;18.9;76.7
79356;SHT31;68825;51.978;5.654;2023-08-06T08:15:00;18.9;76.7
79356;SHT31;68825;51.978;5.654;2023-08-06T08:17:29;18.9;76.2
79356;SHT31;68825;51.978;5.654;2023-08-06T08:20:00;18.9;75.1
79356;SHT31;68825;51.978;5.654;2023-08-06T08:22:29;18.9;76.4
79356;SHT31;68825;51.978;5.654;2023-08-06T08:24:57;18.9;77.0
79356;SHT31;68825;51.978;5.654;2023-08-06T08:27:26;18.9;76.6
79356;SHT31;68825;51.978;5.654;2023-08-06T08:29:56;18.9;75.9
79356;SHT31;68825;51.978;5.654;2023-08-06T08:32:25;18.9;75.4
79356;SHT31;68825;51.978;5.654;2023-08-06T08:34:53;18.9;75.2
79356;SHT31;68825;51.978;5.654;2023-08-06T08:37:23;18.9;75.5
79356;SHT31;68825;51.978;5.654;2023-08-06T08:39:52;18.8;75.5
79356;SHT31;68825;51.978;5.654;2023-08-06T08:42:22;18.8;75.7
79356;SHT31;68825;51.978;5.654;2023-08-06T08:44:52;18.7;76.0
79356;SHT31;68825;51.978;5.654;2023-08-06T08:47:24;18.7;76.5
79356;SHT31;68825;51.978;5.654;2023-08-06T08:49:54;18.7;76.8
79356;SHT31;68825;51.978;5.654;2023-08-06T08:52:27;18.6;76.1
79356;SHT31;68825;51.978;5.654;2023-08-06T08:54:58;18.6;75.3
79356;SHT31;68825;51.978;5.654;2023-08-06T08:57:28;18.5;75.5
79356;SHT31;68825;51.978;5.654;2023-08-06T08:59:56;18.5;75.5
79356;SHT31;68825;51.978;5.654;2023-08-06T09:02:28;18.4;75.8
79356;SHT31;68825;51.978;5.654;2023-08-06T09:04:59;18.3;76.0
79356;SHT31;68825;51.978;5.654;2023-08-06T09:07:34;18.2;76.6
79356;SHT31;68825;51.978;5.654;2023-08-06T09:10:04;18.2;76.6
79356;SHT31;68825;51.978;5.654;2023-08-06T09:12:33;18.1;76.2
79356;SHT31;68825;51.978;5.654;2023-08-06T09:15:02;18.0;76.2
79356;SHT31;68825;51.978;5.654;2023-08-06T09:17:31;18.0;76.8
79356;SHT31;68825;51.978;5.654;2023-08-06T09:20:13;17.9;76.8
79356;SHT31;68825;51.978;5.654;2023-08-06T09:22:42;17.8;77.1
79356;SHT31;68825;51.978;5.654;2023-08-06T09:25:11;17.8;77.0
79356;SHT31;68825;51.978;5.654;2023-08-06T09:27:40;17.7;77.3
79356;SHT31;68825;51.978;5.654;2023-08-06T09:30:09;17.7;77.4
79356;SHT31;68825;51.978;5.654;2023-08-06T09:32:48;17.7;77.6
79356;SHT31;68825;51.978;5.654;2023-08-06T09:35:18;17.6;77.9
79356;SHT31;68825;51.978;5.654;2023-08-06T09:37:47;17.6;77.6
79356;SHT31;68825;51.978;5.654;2023-08-06T09:40:31;17.5;77.8
79356;SHT31;68825;51.978;5.654;2023-08-06T09:43:00;17.5;77.7
79356;SHT31;68825;51.978;5.654;2023-08-06T09:45:31;17.5;78.1
79356;SHT31;68825;51.978;5.654;2023-08-06T09:48:03;17.4;77.8
79356;SHT31;68825;51.978;5.654;2023-08-06T09:50:35;17.4;78.3
79356;SHT31;68825;51.978;5.654;2023-08-06T09:53:05;17.3;79.0
79356;SHT31;68825;51.978;5.654;2023-08-06T09:55:34;17.3;79.7
79356;SHT31;68825;51.978;5.654;2023-08-06T09:58:03;17.2;80.5
79356;SHT31;68825;51.978;5.654;2023-08-06T10:00:33;17.1;80.9
79356;SHT31;68825;51.978;5.654;2023-08-06T10:03:02;17.0;81.7
79356;SHT31;68825;51.978;5.654;2023-08-06T10:05:31;16.9;81.9
79356;SHT31;68825;51.978;5.654;2023-08-06T10:08:02;16.8;82.2
79356;SHT31;68825;51.978;5.654;2023-08-06T10:10:32;16.8;82.9
79356;SHT31;68825;51.978;5.654;2023-08-06T10:13:03;16.7;83.5
79356;SHT31;68825;51.978;5.654;2023-08-06T10:15:35;16.7;83.8
79356;SHT31;68825;51.978;5.654;2023-08-06T10:20:39;16.6;84.3
79356;SHT31;68825;51.978;5.654;2023-08-06T10:23:08;16.6;83.8
79356;SHT31;68825;51.978;5.654;2023-08-06T10:25:41;16.6;84.1
79356;SHT31;68825;51.978;5.654;2023-08-06T10:28:10;16.5;84.5
79356;SHT31;68825;51.978;5.654;2023-08-06T10:30:47;16.5;84.5
79356;SHT31;68825;51.978;5.654;2023-08-06T10:33:19;16.5;84.9
79356;SHT31;68825;51.978;5.654;2023-08-06T10:35:49;16.5;85.0
79356;SHT31;68825;51.978;5.654;2023-08-06T10:38:20;16.5;85.2
79356;SHT31;68825;51.978;5.654;2023-08-06T10:41:02;16.4;85.6
79356;SHT31;68825;51.978;5.654;2023-08-06T10:43:33;16.4;85.3
79356;SHT31;68825;51.978;5.654;2023-08-06T10:46:11;16.4;85.6
79356;SHT31;68825;51.978;5.654;2023-08-06T10:48:41;16.4;85.5
79356;SHT31;68825;51.978;5.654;2023-08-06T10:51:14;16.4;85.4
79356;SHT31;68825;51.978;5.654;2023-08-06T10:53:46;16.4;85.2
79356;SHT31;68825;51.978;5.654;2023-08-06T10:56:16;16.4;85.6
79356;SHT31;68825;51.978;5.654;2023-08-06T10:58:47;16.4;85.7
79356;SHT31;68825;51.978;5.654;2023-08-06T11:01:16;16.4;85.3
79356;SHT31;68825;51.978;5.654;2023-08-06T11:03:46;16.4;85.1
79356;SHT31;68825;51.978;5.654;2023-08-06T11:06:19;16.4;85.3
79356;SHT31;68825;51.978;5.654;2023-08-06T11:08:50;16.4;85.3
79356;SHT31;68825;51.978;5.654;2023-08-06T11:11:21;16.4;85.3
79356;SHT31;68825;51.978;5.654;2023-08-06T11:13:51;16.4;85.3
79356;SHT31;68825;51.978;5.654;2023-08-06T11:16:22;16.3;85.2
79356;SHT31;68825;51.978;5.654;2023-08-06T11:18:52;16.3;85.5
79356;SHT31;68825;51.978;5.654;2023-08-06T11:21:23;16.3;85.7
79356;SHT31;68825;51.978;5.654;2023-08-06T11:23:52;16.3;86.1
79356;SHT31;68825;51.978;5.654;2023-08-06T11:26:22;16.3;86.4
79356;SHT31;68825;51.978;5.654;2023-08-06T11:28:51;16.4;86.1
79356;SHT31;68825;51.978;5.654;2023-08-06T11:31:23;16.4;86.0
79356;SHT31;68825;51.978;5.654;2023-08-06T11:33:53;16.4;86.3
79356;SHT31;68825;51.978;5.654;2023-08-06T11:36:30;16.4;85.7
79356;SHT31;68825;51.978;5.654;2023-08-06T11:38:59;16.4;85.7
79356;SHT31;68825;51.978;5.654;2023-08-06T11:41:29;16.4;85.9
79356;SHT31;68825;51.978;5.654;2023-08-06T11:43:59;16.4;85.7
79356;SHT31;68825;51.978;5.654;2023-08-06T11:46:28;16.4;86.1
79356;SHT31;68825;51.978;5.654;2023-08-06T11:48:59;16.4;85.9
79356;SHT31;68825;51.978;5.654;2023-08-06T11:51:27;16.4;85.6
79356;SHT31;68825;51.978;5.654;2023-08-06T11:53:58;16.4;86.0
79356;SHT31;68825;51.978;5.654;2023-08-06T11:56:27;16.5;84.7
79356;SHT31;68825;51.978;5.654;2023-08-06T11:58:56;16.5;84.8
79356;SHT31;68825;51.978;5.654;2023-08-06T12:01:25;16.5;85.0
79356;SHT31;68825;51.978;5.654;2023-08-06T12:04:00;16.5;84.8
79356;SHT31;68825;51.978;5.654;2023-08-06T12:06:29;16.4;85.1
79356;SHT31;68825;51.978;5.654;2023-08-06T12:08:58;16.4;85.2
79356;SHT31;68825;51.978;5.654;2023-08-06T12:11:26;16.4;84.8
79356;SHT31;68825;51.978;5.654;2023-08-06T12:13:55;16.4;84.8
79356;SHT31;68825;51.978;5.654;2023-08-06T12:16:25;16.4;85.2
79356;SHT31;68825;51.978;5.654;2023-08-06T12:18:53;16.4;84.3
79356;SHT31;68825;51.978;5.654;2023-08-06T12:21:22;16.4;84.5
79356;SHT31;68825;51.978;5.654;2023-08-06T12:23:50;16.4;83.6
79356;SHT31;68825;51.978;5.654;2023-08-06T12:26:19;16.4;83.2
79356;SHT31;68825;51.978;5.654;2023-08-06T12:28:48;16.3;83.0
79356;SHT31;68825;51.978;5.654;2023-08-06T12:31:18;16.3;83.1
79356;SHT31;68825;51.978;5.654;2023-08-06T12:33:48;16.2;82.9
79356;SHT31;68825;51.978;5.654;2023-08-06T12:36:17;16.2;83.5
79356;SHT31;68825;51.978;5.654;2023-08-06T12:38:46;16.2;84.2
79356;SHT31;68825;51.978;5.654;2023-08-06T12:41:14;16.2;85.0
79356;SHT31;68825;51.978;5.654;2023-08-06T12:43:43;16.2;85.7
79356;SHT31;68825;51.978;5.654;2023-08-06T12:46:11;16.2;85.8
79356;SHT31;68825;51.978;5.654;2023-08-06T12:48:40;16.2;85.6
79356;SHT31;68825;51.978;5.654;2023-08-06T12:51:08;16.2;85.5
79356;SHT31;68825;51.978;5.654;2023-08-06T12:53:37;16.2;85.8
79356;SHT31;68825;51.978;5.654;2023-08-06T12:56:06;16.2;86.1
79356;SHT31;68825;51.978;5.654;2023-08-06T12:58:34;16.2;86.5
79356;SHT31;68825;51.978;5.654;2023-08-06T13:01:03;16.2;86.2
79356;SHT31;68825;51.978;5.654;2023-08-06T13:03:31;16.3;86.5
79356;SHT31;68825;51.978;5.654;2023-08-06T13:06:00;16.3;86.4
79356;SHT31;68825;51.978;5.654;2023-08-06T13:08:31;16.3;86.5
79356;SHT31;68825;51.978;5.654;2023-08-06T13:10:59;16.4;86.6
79356;SHT31;68825;51.978;5.654;2023-08-06T13:13:31;16.4;86.4
79356;SHT31;68825;51.978;5.654;2023-08-06T13:15:59;16.4;86.4
79356;SHT31;68825;51.978;5.654;2023-08-06T13:18:29;16.4;86.5
79356;SHT31;68825;51.978;5.654;2023-08-06T13:20:57;16.5;86.3
79356;SHT31;68825;51.978;5.654;2023-08-06T13:23:26;16.5;86.3
79356;SHT31;68825;51.978;5.654;2023-08-06T13:25:55;16.5;86.4
79356;SHT31;68825;51.978;5.654;2023-08-06T13:28:24;16.6;86.6
79356;SHT31;68825;51.978;5.654;2023-08-06T13:30:53;16.6;86.7
79356;SHT31;68825;51.978;5.654;2023-08-06T13:33:25;16.6;87.0
79356;SHT31;68825;51.978;5.654;2023-08-06T13:35:54;16.7;86.9
79356;SHT31;68825;51.978;5.654;2023-08-06T13:38:23;16.7;86.4
79356;SHT31;68825;51.978;5.654;2023-08-06T13:40:51;16.8;86.5
79356;SHT31;68825;51.978;5.654;2023-08-06T13:43:20;16.8;86.5
79356;SHT31;68825;51.978;5.654;2023-08-06T13:45:50;16.8;86.1
79356;SHT31;68825;51.978;5.654;2023-08-06T13:48:19;16.9;86.0
79356;SHT31;68825;51.978;5.654;2023-08-06T13:50:48;16.9;86.1
79356;SHT31;68825;51.978;5.654;2023-08-06T13:53:16;16.9;85.8
79356;SHT31;68825;51.978;5.654;2023-08-06T13:55:45;16.9;85.7
79356;SHT31;68825;51.978;5.654;2023-08-06T13:58:14;17.0;86.0
79356;SHT31;68825;51.978;5.654;2023-08-06T14:00:44;17.0;86.0
79356;SHT31;68825;51.978;5.654;2023-08-06T14:03:12;17.0;85.7
79356;SHT31;68825;51.978;5.654;2023-08-06T14:05:41;17.0;85.5
79356;SHT31;68825;51.978;5.654;2023-08-06T14:08:09;17.0;85.2
79356;SHT31;68825;51.978;5.654;2023-08-06T14:10:38;17.0;85.7
79356;SHT31;68825;51.978;5.654;2023-08-06T14:13:07;17.0;85.6
79356;SHT31;68825;51.978;5.654;2023-08-06T14:15:36;17.0;85.3
79356;SHT31;68825;51.978;5.654;2023-08-06T14:18:06;17.0;85.2
79356;SHT31;68825;51.978;5.654;2023-08-06T14:20:35;17.0;85.1
79356;SHT31;68825;51.978;5.654;2023-08-06T14:23:03;17.0;85.2
79356;SHT31;68825;51.978;5.654;2023-08-06T14:25:34;17.0;85.5
79356;SHT31;68825;51.978;5.654;2023-08-06T14:28:05;17.0;85.6
79356;SHT31;68825;51.978;5.654;2023-08-06T14:30:35;17.1;85.2
79356;SHT31;68825;51.978;5.654;2023-08-06T14:33:06;17.1;85.5
79356;SHT31;68825;51.978;5.654;2023-08-06T14:35:35;17.1;85.4
79356;SHT31;68825;51.978;5.654;2023-08-06T14:38:05;17.1;85.4
79356;SHT31;68825;51.978;5.654;2023-08-06T14:40:35;17.1;85.4
79356;SHT31;68825;51.978;5.654;2023-08-06T14:43:06;17.1;85.4
79356;SHT31;68825;51.978;5.654;2023-08-06T14:45:37;17.1;85.3
79356;SHT31;68825;51.978;5.654;2023-08-06T14:48:06;17.1;85.5
79356;SHT31;68825;51.978;5.654;2023-08-06T14:50:37;17.1;85.8
79356;SHT31;68825;51.978;5.654;2023-08-06T14:53:07;17.1;85.9
79356;SHT31;68825;51.978;5.654;2023-08-06T14:55:38;17.1;85.8
79356;SHT31;68825;51.978;5.654;2023-08-06T14:58:08;17.1;85.8
79356;SHT31;68825;51.978;5.654;2023-08-06T15:00:37;17.1;85.5
79356;SHT31;68825;51.978;5.654;2023-08-06T15:03:05;17.2;85.7
79356;SHT31;68825;51.978;5.654;2023-08-06T15:05:34;17.2;85.5
79356;SHT31;68825;51.978;5.654;2023-08-06T15:08:02;17.2;85.1
79356;SHT31;68825;51.978;5.654;2023-08-06T15:10:31;17.2;84.9
79356;SHT31;68825;51.978;5.654;2023-08-06T15:13:00;17.2;84.9
79356;SHT31;68825;51.978;5.654;2023-08-06T15:15:29;17.2;85.2
79356;SHT31;68825;51.978;5.654;2023-08-06T15:17:58;17.2;84.8
79356;SHT31;68825;51.978;5.654;2023-08-06T15:20:26;17.2;85.3
79356;SHT31;68825;51.978;5.654;2023-08-06T15:22:55;17.2;84.9
79356;SHT31;68825;51.978;5.654;2023-08-06T15:25:24;17.2;84.5
79356;SHT31;68825;51.978;5.654;2023-08-06T15:27:54;17.2;84.9
79356;SHT31;68825;51.978;5.654;2023-08-06T15:30:22;17.2;84.7
79356;SHT31;68825;51.978;5.654;2023-08-06T15:32:53;17.2;84.7
79356;SHT31;68825;51.978;5.654;2023-08-06T15:35:22;17.2;84.8
79356;SHT31;68825;51.978;5.654;2023-08-06T15:37:51;17.2;84.9
79356;SHT31;68825;51.978;5.654;2023-08-06T15:40:19;17.2;85.0
79356;SHT31;68825;51.978;5.654;2023-08-06T15:42:48;17.2;84.8
79356;SHT31;68825;51.978;5.654;2023-08-06T15:45:17;17.2;83.9
79356;SHT31;68825;51.978;5.654;2023-08-06T15:47:46;17.2;84.0
79356;SHT31;68825;51.978;5.654;2023-08-06T15:50:14;17.2;84.2
79356;SHT31;68825;51.978;5.654;2023-08-06T15:52:43;17.2;83.7
79356;SHT31;68825;51.978;5.654;2023-08-06T15:55:12;17.1;83.6
79356;SHT31;68825;51.978;5.654;2023-08-06T15:57:41;17.1;84.0
79356;SHT31;68825;51.978;5.654;2023-08-06T16:00:10;17.1;83.9
79356;SHT31;68825;51.978;5.654;2023-08-06T16:02:39;17.0;83.9
79356;SHT31;68825;51.978;5.654;2023-08-06T16:05:08;17.0;83.8
79356;SHT31;68825;51.978;5.654;2023-08-06T16:07:37;17.0;83.3
79356;SHT31;68825;51.978;5.654;2023-08-06T16:10:06;17.0;83.3
79356;SHT31;68825;51.978;5.654;2023-08-06T16:12:35;17.0;83.2
79356;SHT31;68825;51.978;5.654;2023-08-06T16:15:04;16.9;82.4
79356;SHT31;68825;51.978;5.654;2023-08-06T16:17:33;16.9;82.3
79356;SHT31;68825;51.978;5.654;2023-08-06T16:20:02;16.8;82.7